createdAt,value
2022-08-25T00:00:57.002Z,5.93
2022-08-25T00:05:58.270Z,7.35
2022-08-25T00:11:03.600Z,5.85
2022-08-25T00:16:03.049Z,6.07
2022-08-25T00:21:02.430Z,6.53
2022-08-25T00:26:02.139Z,7.40
2022-08-25T00:31:01.682Z,6.68
2022-08-25T00:36:00.489Z,6.05
2022-08-25T00:41:08.471Z,5.90
2022-08-25T00:46:10.858Z,7.03
2022-08-25T00:51:19.015Z,6.67
2022-08-25T00:56:18.396Z,6.32
2022-08-25T01:01:19.040Z,5.50
2022-08-25T01:06:17.647Z,5.93
2022-08-25T01:11:17.140Z,7.03
2022-08-25T01:16:16.332Z,6.95
2022-08-25T01:21:20.944Z,6.45
2022-08-25T01:26:25.100Z,5.53
2022-08-25T01:31:33.961Z,6.28
2022-08-25T01:36:33.283Z,5.80
2022-08-25T01:41:34.024Z,6.63
2022-08-25T01:46:36.646Z,5.95
2022-08-25T01:51:39.466Z,6.13
2022-08-25T01:56:38.266Z,7.23
2022-08-25T02:01:37.050Z,6.47
2022-08-25T02:06:36.653Z,6.55
2022-08-25T02:11:37.588Z,7.03
2022-08-25T02:16:40.909Z,7.60
2022-08-25T02:21:42.917Z,6.55
2022-08-25T02:26:42.208Z,7.28
2022-08-25T02:31:44.413Z,7.38
2022-08-25T02:36:44.007Z,6.73
2022-08-25T02:41:48.011Z,8.55
2022-08-25T02:46:47.730Z,8.50
2022-08-25T02:51:49.026Z,7.15
2022-08-25T02:56:51.298Z,7.25
2022-08-25T03:01:50.589Z,7.03
2022-08-25T03:06:49.982Z,6.82
2022-08-25T03:11:52.262Z,7.10
2022-08-25T03:16:52.016Z,6.40
2022-08-25T03:21:55.515Z,6.07
2022-08-25T03:26:56.958Z,6.93
2022-08-25T03:32:00.264Z,6.50
2022-08-25T03:36:59.152Z,6.13
2022-08-25T03:41:56.543Z,5.93
2022-08-25T03:46:55.150Z,6.82
2022-08-25T03:51:53.877Z,6.95
2022-08-25T03:56:55.407Z,7.38
2022-08-25T04:01:56.720Z,7.15
2022-08-25T04:06:55.794Z,7.80
2022-08-25T04:11:58.620Z,7.10
2022-08-25T04:16:56.588Z,7.47
2022-08-25T04:21:56.874Z,8.20
2022-08-25T04:26:56.608Z,7.60
2022-08-25T04:31:56.770Z,6.13
2022-08-25T04:36:57.826Z,6.03
2022-08-25T04:41:56.693Z,6.10
2022-08-25T04:46:55.008Z,7.10
2022-08-25T04:51:53.893Z,6.97
2022-08-25T04:56:58.710Z,6.75
2022-08-25T05:01:58.845Z,6.88
2022-08-25T05:06:58.273Z,6.55
2022-08-25T05:11:57.697Z,6.65
2022-08-25T05:16:59.421Z,6.40
2022-08-25T05:21:58.568Z,7.10
2022-08-25T05:27:00.454Z,5.88
2022-08-25T05:31:59.388Z,5.63
2022-08-25T05:37:00.647Z,5.25
2022-08-25T05:41:59.622Z,6.40
2022-08-25T05:46:59.080Z,6.18
2022-08-25T05:51:56.696Z,5.10
2022-08-25T05:56:58.827Z,5.25
2022-08-25T06:02:21.189Z,5.10
2022-08-25T06:07:22.099Z,10.43
2022-08-25T06:12:22.526Z,4.95
2022-08-25T06:17:22.656Z,4.70
2022-08-25T06:22:21.547Z,5.40
2022-08-25T06:27:22.329Z,5.32
2022-08-25T06:32:22.983Z,5.63
2022-08-25T06:37:25.205Z,4.53
2022-08-25T06:42:24.004Z,5.20
2022-08-25T06:47:25.782Z,3.67
2022-08-25T06:52:29.474Z,5.07
2022-08-25T06:57:28.355Z,5.25
2022-08-25T07:02:30.591Z,4.65
2022-08-25T07:07:43.061Z,4.70
2022-08-25T07:12:43.908Z,5.63
2022-08-25T07:17:45.568Z,5.00
2022-08-25T07:22:45.603Z,5.45
2022-08-25T07:27:46.973Z,5.13
2022-08-25T07:32:45.799Z,4.85
2022-08-25T07:37:58.758Z,4.65
2022-08-25T07:43:07.027Z,4.22
2022-08-25T07:48:09.351Z,4.78
2022-08-25T07:53:07.139Z,4.00
2022-08-25T07:58:10.121Z,3.92
2022-08-25T08:03:19.677Z,4.15
2022-08-25T08:08:30.353Z,5.25
2022-08-25T08:13:39.204Z,4.93
2022-08-25T08:18:44.820Z,4.70
2022-08-25T08:23:45.357Z,4.60
2022-08-25T08:28:52.122Z,3.75
2022-08-25T08:33:55.227Z,4.88
2022-08-25T08:38:53.859Z,4.55
2022-08-25T08:44:00.447Z,4.63
2022-08-25T08:49:08.298Z,4.32
2022-08-25T08:54:15.086Z,3.17
2022-08-25T08:59:20.859Z,4.32
2022-08-25T09:04:28.268Z,3.28
2022-08-25T09:09:30.592Z,3.70
2022-08-25T09:14:53.842Z,3.95
2022-08-25T09:20:18.179Z,3.78
2022-08-25T09:25:52.464Z,3.40
2022-08-25T09:31:05.998Z,3.40
2022-08-25T09:36:09.194Z,3.13
2022-08-25T09:41:11.518Z,3.00
2022-08-25T09:46:27.156Z,4.35
2022-08-25T09:51:38.008Z,4.03
2022-08-25T09:56:54.818Z,3.97
2022-08-25T10:01:57.348Z,3.20
2022-08-25T10:06:56.368Z,4.10
2022-08-25T10:12:06.241Z,3.38
2022-08-25T10:17:17.368Z,4.00
2022-08-25T10:22:33.697Z,3.55
2022-08-25T10:28:09.563Z,3.20
2022-08-25T10:33:17.518Z,4.28
2022-08-25T10:38:52.886Z,3.05
2022-08-25T10:44:03.933Z,3.80
2022-08-25T10:49:28.906Z,4.00
2022-08-25T10:54:51.107Z,3.88
2022-08-25T11:00:15.477Z,4.72
2022-08-25T11:05:33.335Z,3.05
2022-08-25T11:10:55.216Z,3.50
2022-08-25T11:16:17.210Z,4.32
2022-08-25T11:21:24.781Z,3.70
2022-08-25T11:26:36.817Z,4.47
2022-08-25T11:31:56.188Z,4.25
2022-08-25T11:37:31.493Z,3.92
2022-08-25T11:42:36.438Z,4.60
2022-08-25T11:47:51.751Z,3.90
2022-08-25T11:52:56.841Z,4.75
2022-08-25T11:58:30.701Z,4.95
2022-08-25T12:03:39.120Z,4.93
2022-08-25T12:08:57.532Z,5.10
2022-08-25T12:14:43.187Z,4.35
2022-08-25T12:19:48.264Z,4.63
2022-08-25T12:25:09.226Z,4.75
2022-08-25T12:30:28.868Z,3.73
2022-08-25T12:35:53.661Z,4.85
2022-08-25T12:41:16.854Z,4.55
2022-08-25T12:46:36.130Z,3.88
2022-08-25T12:51:48.469Z,5.00
2022-08-25T12:56:54.879Z,4.35
2022-08-25T13:01:57.645Z,4.70
2022-08-25T13:07:35.924Z,4.63
2022-08-25T13:12:47.227Z,4.45
2022-08-25T13:17:46.478Z,5.10
2022-08-25T13:22:57.224Z,4.70
2022-08-25T13:28:04.779Z,5.00
2022-08-25T13:33:26.333Z,4.85
2022-08-25T13:38:27.460Z,4.57
2022-08-25T13:43:29.774Z,4.18
2022-08-25T13:48:49.347Z,4.55
2022-08-25T13:53:52.836Z,4.68
2022-08-25T13:58:57.447Z,5.00
2022-08-25T14:04:21.552Z,4.32
2022-08-25T14:09:28.294Z,5.50
2022-08-25T14:14:30.716Z,6.45
2022-08-25T14:19:36.952Z,6.03
2022-08-25T14:24:40.997Z,5.75
2022-08-25T14:29:41.019Z,6.47
2022-08-25T14:34:44.845Z,5.40
2022-08-25T14:39:47.136Z,5.57
2022-08-25T14:44:47.586Z,5.35
2022-08-25T14:49:50.184Z,5.53
2022-08-25T14:54:51.066Z,4.70
2022-08-25T14:59:52.880Z,6.07
2022-08-25T15:05:06.869Z,5.20
2022-08-25T15:10:13.936Z,5.50
2022-08-25T15:15:36.033Z,6.53
2022-08-25T15:20:42.983Z,6.20
2022-08-25T15:25:52.941Z,5.47
2022-08-25T15:31:12.488Z,5.40
2022-08-25T15:36:20.657Z,6.55
2022-08-25T15:41:30.140Z,5.10
2022-08-25T15:46:30.819Z,6.18
2022-08-25T15:51:34.362Z,7.60
2022-08-25T15:56:34.248Z,5.75
2022-08-25T16:01:35.720Z,5.47
2022-08-25T16:11:56.678Z,5.47
2022-08-25T16:22:24.455Z,6.63
2022-08-25T16:27:27.148Z,8.40
2022-08-25T16:33:03.588Z,6.15
2022-08-25T16:38:07.272Z,6.35
2022-08-25T16:43:09.745Z,6.70
2022-08-25T16:48:18.357Z,7.65
2022-08-25T16:53:43.159Z,6.90
2022-08-25T16:59:10.631Z,7.85
2022-08-25T17:04:16.385Z,7.40
2022-08-25T17:09:30.931Z,8.30
2022-08-25T17:14:33.486Z,8.90
2022-08-25T17:19:35.802Z,7.90
2022-08-25T17:25:00.958Z,8.93
2022-08-25T17:30:05.495Z,7.97
2022-08-25T17:35:14.140Z,9.20
2022-08-25T17:40:19.912Z,6.90
2022-08-25T17:45:29.361Z,5.97
2022-08-25T17:50:36.455Z,13.60
2022-08-25T17:55:42.276Z,17.27
2022-08-25T18:01:23.217Z,8.40
2022-08-25T18:06:32.838Z,6.97
2022-08-25T18:11:48.975Z,8.05
2022-08-25T18:17:15.925Z,8.38
2022-08-25T18:28:28.245Z,9.00
2022-08-25T18:33:30.295Z,10.93
2022-08-25T18:38:59.843Z,9.38
2022-08-25T18:44:19.023Z,7.57
2022-08-25T18:49:22.177Z,7.03
2022-08-25T18:54:27.210Z,6.18
2022-08-25T18:59:30.784Z,6.18
2022-08-25T19:04:46.034Z,6.78
2022-08-25T19:09:50.962Z,5.43
2022-08-25T19:14:55.524Z,6.03
2022-08-25T19:20:11.207Z,6.20
2022-08-25T19:25:11.912Z,6.03
2022-08-25T19:30:13.074Z,5.50
2022-08-25T19:35:43.752Z,5.50
2022-08-25T19:41:10.705Z,5.25
2022-08-25T19:46:32.858Z,4.93
2022-08-25T19:51:40.367Z,5.35
2022-08-25T19:56:43.851Z,5.10
2022-08-25T20:01:55.857Z,5.13
2022-08-25T20:06:55.736Z,4.97
2022-08-25T20:11:55.055Z,4.70
2022-08-25T20:17:01.139Z,5.70
2022-08-25T20:22:00.640Z,4.88
2022-08-25T20:27:02.909Z,5.35
2022-08-25T20:32:06.459Z,4.85
2022-08-25T20:37:08.119Z,4.88
2022-08-25T20:42:10.217Z,4.18
2022-08-25T20:47:12.889Z,4.20
2022-08-25T20:52:20.478Z,5.33
2022-08-25T20:57:29.510Z,3.75
2022-08-25T21:02:32.576Z,4.03
2022-08-25T21:07:36.593Z,5.30
2022-08-25T21:12:53.379Z,4.47
2022-08-25T21:17:55.692Z,3.92
2022-08-25T21:23:03.156Z,4.28
2022-08-25T21:28:08.741Z,3.55
2022-08-25T21:33:08.885Z,4.75
2022-08-25T21:38:13.327Z,3.75
2022-08-25T21:43:31.849Z,4.80
2022-08-25T21:48:33.757Z,5.13
2022-08-25T21:53:33.754Z,4.22
2022-08-25T22:03:51.692Z,4.10
2022-08-25T22:08:55.107Z,4.22
2022-08-25T22:14:03.995Z,4.18
2022-08-25T22:19:17.531Z,4.20
2022-08-25T22:24:19.126Z,4.47
2022-08-25T22:29:25.990Z,4.43
2022-08-25T22:34:32.112Z,4.57
2022-08-25T22:39:36.529Z,4.50
2022-08-25T22:44:39.828Z,3.83
2022-08-25T22:49:42.627Z,4.10
2022-08-25T22:54:44.772Z,4.15
2022-08-25T22:59:45.257Z,4.68
2022-08-25T23:04:45.636Z,4.25
2022-08-25T23:09:52.284Z,4.13
2022-08-25T23:14:54.910Z,4.47
2022-08-25T23:20:19.738Z,3.67
2022-08-25T23:25:27.881Z,3.35
2022-08-25T23:30:33.162Z,3.22
2022-08-25T23:35:39.173Z,3.43
2022-08-25T23:40:44.171Z,3.55
2022-08-25T23:45:45.545Z,3.15
2022-08-25T23:50:47.209Z,4.65
2022-08-25T23:55:56.038Z,4.05
